Latest Weather Observations for Cairns

IDQ60801

Issued at 4:02 pm EST Saturday 27 May 2017 (issued every 30 minutes, with the page automatically refreshed every 10 minutes)

About weather observations | Map of weather stations | Latest weather observations for QLD | Other Formats
Station Details ID: 031011 Name: CAIRNS AERO Lat: -16.87 Lon: 145.75 Height: 2.22 m
Data from the previous 72 hours. | See also: Recent months at Cairns
Date/Time
EST
Temp
°C
App
Temp
°C
Dew
Point
°C
Rel
Hum
%
Delta-T
°C
Wind Press
QNH
hPa
Press
MSL
hPa
Rain since
9am
mm
Dir  Spd
km/h
Gust
km/h
Spd
kts
Gust
kts
27/03:30pm 26.6 25.1 18.5 61 5.2 ESE 24 30 13 16 1014.4 1014.4 0.0
27/03:00pm 27.1 25.4 18.9 61 5.3 ESE 26 32 14 17 1014.4 1014.4 0.0
27/02:30pm 27.1 25.4 18.9 61 5.3 ESE 26 33 14 18 1014.4 1014.4 0.0
27/02:00pm 26.6 24.0 18.7 62 5.0 ESE 30 35 16 19 1014.5 1014.5 0.0
27/01:30pm 27.7 25.6 18.1 56 6.1 ESE 26 32 14 17 1014.7 1014.7 0.0
27/01:00pm 28.0 25.5 18.1 55 6.3 ESE 28 33 15 18 1015.1 1015.1 0.0
27/12:30pm 27.5 25.2 18.5 58 5.8 ESE 28 33 15 18 1015.5 1015.5 0.0
27/12:00pm 27.9 26.5 19.7 61 5.3 ESE 26 33 14 18 1015.9 1015.9 0.0
27/11:30am 27.6 26.2 18.9 59 5.6 SE 24 32 13 17 1016.3 1016.3 0.0
27/11:00am 27.1 25.7 18.9 61 5.3 SE 24 32 13 17 1016.6 1016.6 0.0
27/10:30am 26.4 25.9 19.0 63 4.7 SSE 20 30 11 16 1017.0 1017.0 0.0
27/10:00am 25.8 25.8 19.7 69 3.9 SSE 19 26 10 14 1017.2 1017.2 0.0
27/09:30am 24.8 24.6 19.4 72 3.5 SSE 19 26 10 14 1017.2 1017.2 0.0
27/09:00am 24.5 24.2 19.1 72 3.4 SSE 19 26 10 14 1017.2 1017.2 0.0
27/08:30am 23.2 23.5 18.7 76 2.8 SE 15 19 8 10 1016.8 1016.8 0.0
27/08:00am 21.4 21.2 18.6 84 1.8 ESE 17 20 9 11 1016.7 1016.7 0.0
27/07:30am 21.1 21.4 18.7 86 1.5 SE 15 19 8 10 1016.5 1016.5 0.0
27/07:00am 20.7 20.8 18.3 86 1.5 SE 15 19 8 10 1016.1 1016.1 0.0
27/06:30am 22.4 22.5 18.4 78 2.5 SSE 15 26 8 14 1015.7 1015.7 0.0
27/06:00am 22.7 21.7 18.0 75 2.9 S 20 30 11 16 1015.3 1015.3 0.0
27/05:30am 21.4 20.5 18.2 82 2.0 SE 20 26 11 14 1015.0 1015.0 0.0
27/05:00am 20.9 21.0 18.3 85 1.6 SE 15 19 8 10 1015.0 1015.0 0.0
27/04:30am 21.0 21.4 18.2 84 1.7 SSE 13 17 7 9 1015.2 1015.2 0.0
27/04:00am 22.5 23.4 18.5 78 2.5 S 11 19 6 10 1015.3 1015.3 0.0
27/03:30am 21.6 21.9 18.0 80 2.2 SSE 13 22 7 12 1015.4 1015.4 0.0
27/03:00am 23.1 23.1 18.2 74 3.1 SSE 15 22 8 12 1015.5 1015.5 0.0
27/02:30am 21.6 21.6 18.2 81 2.1 SE 15 19 8 10 1015.8 1015.8 0.0
27/02:00am 21.1 21.2 18.3 84 1.7 SE 15 17 8 9 1016.2 1016.2 0.0
27/01:30am 21.7 22.5 18.1 80 2.2 SSE 11 19 6 10 1016.4 1016.4 0.0
27/01:00am 23.1 23.0 17.8 72 3.3 S 15 26 8 14 1016.5 1016.5 0.0
27/12:30am 22.8 22.4 18.1 75 2.9 S 17 22 9 12 1016.5 1016.5 0.0
27/12:00am 22.7 22.5 18.5 77 2.6 S 17 24 9 13 1016.6 1016.6 0.0
 
Date/Time
EST
Temp
°C
App
Temp
°C
Dew
Point
°C
Rel
Hum
%
Delta-T
°C
Wind Press
QNH
hPa
Press
MSL
hPa
Rain since
9am
mm
Dir  Spd
km/h
Gust
km/h
Spd
kts
Gust
kts
26/11:30pm 22.9 23.2 18.7 77 2.7 S 15 22 8 12 1016.8 1016.8 0.0
26/11:00pm 23.0 23.2 18.5 76 2.8 S 15 20 8 11 1017.0 1017.0 0.0
26/10:30pm 23.1 23.3 18.6 76 2.8 S 15 20 8 11 1016.8 1016.8 0.0
26/10:00pm 22.9 23.3 18.9 78 2.5 S 15 22 8 12 1016.9 1016.9 0.0
26/09:30pm 22.6 22.6 19.0 80 2.3 S 17 22 9 12 1016.9 1016.9 0.0
26/09:00pm 22.8 22.7 18.8 78 2.5 S 17 26 9 14 1016.8 1016.8 0.0
26/08:30pm 22.4 23.3 18.4 78 2.5 SSE 11 15 6 8 1016.6 1016.6 0.0
26/08:00pm 22.6 22.9 17.9 75 2.9 SSE 13 19 7 10 1016.4 1016.4 0.0
26/07:30pm 22.8 23.1 17.9 74 3.1 SSE 13 19 7 10 1016.2 1016.2 0.0
26/07:00pm 22.8 23.8 17.7 73 3.2 SSE 9 13 5 7 1015.7 1015.7 0.0
26/06:30pm 23.2 23.2 17.2 69 3.7 SSE 13 17 7 9 1015.3 1015.3 0.0
26/06:00pm 23.5 22.4 17.3 68 3.8 SE 19 26 10 14 1015.0 1015.0 0.0
26/05:30pm 24.6 23.4 17.6 65 4.4 SE 20 28 11 15 1014.8 1014.8 0.0
26/05:00pm 25.3 22.8 17.2 61 5.0 SE 26 32 14 17 1014.6 1014.6 0.0
26/04:30pm 25.9 23.4 18.1 62 4.9 SE 28 37 15 20 1014.3 1014.3 0.0
26/04:00pm 26.7 24.5 18.6 61 5.2 SE 28 35 15 19 1014.2 1014.2 0.0
26/03:30pm 26.8 23.8 17.8 57 5.7 SE 30 37 16 20 1014.0 1014.0 0.0
26/03:00pm 27.1 25.4 18.1 58 5.7 SE 24 37 13 20 1014.1 1014.1 0.0
26/02:30pm 27.4 24.2 18.1 57 5.9 SE 32 37 17 20 1014.3 1014.3 0.0
26/02:00pm 27.7 23.7 16.3 49 7.0 ESE 32 41 17 22 1014.6 1014.6 0.0
26/01:30pm 28.1 23.7 16.7 50 7.1 SE 35 44 19 24 1014.9 1014.9 0.0
26/01:00pm 26.6 22.1 15.3 50 6.8 SE 33 43 18 23 1015.4 1015.4 0.0
26/12:30pm 26.0 23.2 18.2 62 4.9 SE 30 39 16 21 1016.0 1016.0 0.0
26/12:00pm 26.0 23.9 18.9 65 4.5 SE 28 35 15 19 1016.4 1016.4 0.0
26/11:30am 27.2 25.1 19.0 61 5.3 SE 28 35 15 19 1016.6 1016.6 0.0
26/11:00am 27.4 24.4 18.7 59 5.6 SE 32 41 17 22 1016.7 1016.7 0.0
26/10:30am 26.8 24.5 18.4 60 5.3 SE 28 50 15 27 1017.0 1017.0 0.0
26/10:00am 26.5 25.1 18.9 63 4.9 SE 24 32 13 17 1017.2 1017.2 0.0
26/09:30am 25.2 24.2 18.9 68 4.0 SSE 22 30 12 16 1017.1 1017.1 0.0
26/09:00am 24.8 24.3 19.0 70 3.7 SSE 20 32 11 17 1017.0 1017.0 0.0
26/08:30am 23.8 24.2 18.9 74 3.1 SSE 15 20 8 11 1016.7 1016.7 0.0
26/08:00am 23.5 23.3 18.4 73 3.2 SSE 17 26 9 14 1016.4 1016.4 0.0
26/07:30am 22.8 22.5 18.3 76 2.8 SSE 17 28 9 15 1016.2 1016.2 0.0
26/07:00am 22.1 21.3 18.1 78 2.5 S 19 30 10 16 1015.9 1015.9 0.0
26/06:30am 22.1 21.7 18.1 78 2.5 SSE 17 26 9 14 1015.6 1015.6 0.0
26/06:00am 21.9 21.5 18.1 79 2.4 SSE 17 28 9 15 1015.1 1015.1 0.0
26/05:30am 21.9 21.1 18.1 79 2.4 SSE 19 28 10 15 1014.7 1014.7 0.0
26/05:00am 22.0 21.3 18.2 79 2.4 SSE 19 30 10 16 1014.5 1014.5 0.0
26/04:30am 22.0 21.3 18.2 79 2.4 SSE 19 26 10 14 1014.8 1014.8 0.0
26/04:00am 22.5 22.2 18.3 77 2.6 SSE 17 30 9 16 1014.7 1014.7 0.0
26/03:30am 22.1 21.8 18.3 79 2.4 SSE 17 28 9 15 1014.8 1014.8 0.0
26/03:00am 22.0 21.3 18.2 79 2.4 SSE 19 30 10 16 1015.1 1015.1 0.0
26/02:30am 21.9 21.2 18.3 80 2.2 SSE 19 30 10 16 1015.3 1015.3 0.0
26/02:00am 22.0 21.2 18.4 80 2.3 SSE 20 30 11 16 1015.5 1015.5 0.0
26/01:30am 22.0 21.7 18.2 79 2.4 S 17 30 9 16 1015.9 1015.9 0.0
26/01:00am 22.2 21.3 18.2 78 2.5 S 20 30 11 16 1016.1 1016.1 0.0
26/12:30am 22.2 21.5 18.2 78 2.5 SSE 19 28 10 15 1016.2 1016.2 0.0
26/12:00am 22.5 21.4 17.8 75 2.9 SSE 20 32 11 17 1016.3 1016.3 0.0
 
Date/Time
EST
Temp
°C
App
Temp
°C
Dew
Point
°C
Rel
Hum
%
Delta-T
°C
Wind Press
QNH
hPa
Press
MSL
hPa
Rain since
9am
mm
Dir  Spd
km/h
Gust
km/h
Spd
kts
Gust
kts
25/11:30pm 22.5 21.0 17.8 75 2.9 S 22 37 12 20 1016.4 1016.4 0.0
25/11:00pm 22.6 21.5 17.7 74 3.0 S 20 37 11 20 1016.6 1016.6 0.0
25/10:30pm 22.5 21.4 17.8 75 2.9 S 20 33 11 18 1016.7 1016.7 0.0
25/10:00pm 22.5 21.0 17.6 74 3.0 SSE 22 37 12 20 1016.8 1016.8 0.0
25/09:30pm 22.6 21.0 17.5 73 3.2 S 22 33 12 18 1016.7 1016.7 0.0
25/09:00pm 22.5 21.3 17.6 74 3.0 S 20 33 11 18 1016.6 1016.6 0.0
25/08:30pm 22.5 22.0 17.8 75 2.9 S 17 26 9 14 1016.7 1016.7 0.0
25/08:00pm 22.4 21.9 17.8 75 2.9 S 17 28 9 15 1016.3 1016.3 0.0
25/07:30pm 22.3 21.8 17.7 75 2.9 S 17 24 9 13 1016.0 1016.0 0.0
25/07:00pm 23.1 23.3 17.6 71 3.4 S 13 20 7 11 1015.7 1015.7 0.0
25/06:30pm 23.2 22.5 17.4 70 3.6 SSE 17 26 9 14 1015.4 1015.4 0.0
25/06:00pm 24.0 22.9 16.3 62 4.7 SSE 17 28 9 15 1015.2 1015.2 0.0
25/05:30pm 24.8 22.2 16.0 58 5.4 SE 24 35 13 19 1014.9 1014.9 0.0
25/05:00pm 25.5 22.0 16.4 57 5.6 SE 30 39 16 21 1014.7 1014.7 0.0
25/04:30pm 26.0 22.0 16.3 55 6.0 SE 32 43 17 23 1014.7 1014.7 0.0
25/04:00pm 26.5 22.3 16.1 52 6.4 SE 33 41 18 22 1014.6 1014.6 0.0
25/03:30pm 27.0 22.8 16.3 52 6.6 SE 33 43 18 23 1014.5 1014.5 0.0
25/03:00pm 26.9 22.1 16.5 53 6.4 SE 37 48 20 26 1014.6 1014.6 0.0
25/02:30pm 27.1 23.1 16.7 53 6.5 SE 33 46 18 25 1014.7 1014.7 0.0
25/02:00pm 27.2 22.4 16.5 52 6.6 SE 37 50 20 27 1014.9 1014.9 0.0
25/01:30pm 27.4 22.8 17.0 53 6.5 SE 37 48 20 26 1015.0 1015.0 0.0
25/01:00pm 27.2 22.7 16.5 52 6.6 SE 35 50 19 27 1015.7 1015.7 0.0
25/12:30pm 27.2 22.6 17.9 56 5.9 SE 39 52 21 28 1016.2 1016.2 0.0
25/12:00pm 27.0 22.4 17.2 55 6.1 SE 37 48 20 26 1016.3 1016.3 0.0
25/11:30am 27.0 22.2 17.5 56 6.0 SE 39 48 21 26 1016.6 1016.6 0.0
25/11:00am 26.4 22.0 17.5 58 5.6 SE 37 48 20 26 1016.8 1016.8 0.0
25/10:30am 26.1 22.1 17.7 60 5.3 SE 35 46 19 25 1017.1 1017.1 0.0
25/10:00am 26.0 22.3 17.4 59 5.4 SE 33 46 18 25 1017.3 1017.3 0.0
25/09:30am 25.2 23.3 18.6 67 4.2 SSE 26 32 14 17 1017.3 1017.3 0.0
25/09:00am 24.2 22.0 17.9 68 3.9 SSE 26 33 14 18 1017.1 1017.1 1.0
25/08:30am 23.3 21.4 17.7 71 3.5 SSE 24 33 13 18 1016.7 1016.7 1.0
25/08:00am 22.6 21.0 17.5 73 3.2 SSE 22 32 12 17 1016.6 1016.6 1.0
25/07:30am 22.0 20.9 17.4 75 2.8 SE 19 26 10 14 1016.2 1016.2 1.0
25/07:00am 21.5 19.4 17.1 76 2.7 SSE 24 37 13 20 1015.8 1015.8 1.0
25/06:30am 21.8 19.3 17.0 74 2.9 SSE 26 41 14 22 1015.5 1015.5 1.0
25/06:00am 21.7 19.5 16.9 74 2.9 SSE 24 33 13 18 1015.2 1015.2 1.0
25/05:30am 21.7 20.3 17.1 75 2.8 SSE 20 33 11 18 1015.0 1015.0 1.0
25/05:00am 21.5 20.2 17.3 77 2.6 SSE 20 32 11 17 1014.9 1014.9 1.0
25/04:30am 21.7 20.3 17.1 75 2.8 SSE 20 32 11 17 1014.8 1014.8 1.0
25/04:00am 21.8 20.7 17.2 75 2.8 SSE 19 28 10 15 1014.8 1014.8 1.0
25/03:30am 21.8 21.5 17.4 76 2.7 SSE 15 24 8 13 1015.0 1015.0 1.0
25/03:00am 19.7 19.7 17.3 86 1.5 ESE 13 17 7 9 1015.3 1015.3 1.0
25/02:30am 20.6 20.6 17.2 81 2.1 SE 13 26 7 14 1015.4 1015.4 1.0
25/02:00am 21.8 21.0 17.0 74 2.9 SSE 17 28 9 15 1015.5 1015.5 1.0
25/01:30am 21.7 21.2 16.9 74 2.9 SSE 15 26 8 14 1016.0 1016.0 1.0
25/01:00am 21.6 21.2 17.2 76 2.7 SSE 15 24 8 13 1016.3 1016.3 1.0
25/12:30am 21.7 21.8 17.5 77 2.6 SSE 13 24 7 13 1016.6 1016.6 1.0
25/12:00am 21.4 21.7 17.8 80 2.2 SSE 13 22 7 12 1017.0 1017.0 1.0
 
Date/Time
EST
Temp
°C
App
Temp
°C
Dew
Point
°C
Rel
Hum
%
Delta-T
°C
Wind Press
QNH
hPa
Press
MSL
hPa
Rain since
9am
mm
Dir  Spd
km/h
Gust
km/h
Spd
kts
Gust
kts
24/11:30pm 21.8 21.8 18.0 79 2.4 SSE 15 26 8 14 1017.2 1017.2 1.0
24/11:00pm 21.6 21.3 18.2 81 2.1 SSE 17 26 9 14 1017.3 1017.3 1.0
24/10:30pm 21.7 22.1 18.9 84 1.8 S 15 24 8 13 1017.4 1017.4 1.0
24/10:00pm 21.7 22.9 19.1 85 1.6 S 11 17 6 9 1017.5 1017.5 1.0
24/09:30pm 22.0 22.4 19.0 83 1.9 S 15 22 8 12 1017.3 1017.3 1.0
24/09:00pm 22.2 22.2 19.0 82 2.0 S 17 28 9 15 1017.2 1017.2 1.0
24/08:30pm 22.4 21.9 19.2 82 2.0 S 20 32 11 17 1017.0 1017.0 1.0
24/08:00pm 22.4 22.2 19.4 83 1.9 S 19 30 10 16 1016.6 1016.6 1.0
24/07:30pm 22.6 21.5 19.4 82 2.0 SSE 24 37 13 20 1016.1 1016.1 1.0
24/07:00pm 22.8 22.0 19.2 80 2.3 SSE 22 30 12 16 1015.8 1015.8 1.0
24/06:30pm 23.5 22.1 18.8 75 3.0 SSE 24 32 13 17 1015.7 1015.7 1.0
24/06:00pm 23.6 22.6 18.9 75 3.0 SSE 22 28 12 15 1015.6 1015.6 1.0
24/05:30pm 24.1 23.6 18.7 72 3.4 SSE 19 28 10 15 1015.6 1015.6 1.0
24/05:00pm 24.8 24.4 19.0 70 3.7 SSE 19 26 10 14 1015.2 1015.2 1.0
24/04:30pm 25.0 23.5 19.4 71 3.6 SE 26 37 14 20 1015.0 1015.0 1.0

Other Formats:

Comma delimited format used in spreadsheet applications
http://www.bom.gov.au/fwo/IDQ60801/IDQ60801.94287.axf

JavaScript Object Notation format (JSON) in row-major order
http://www.bom.gov.au/fwo/IDQ60801/IDQ60801.94287.json